Time;durP1;ratioP1;P1;durP2;ratioP2;P2;SDS_P1;SDS_P2;PMS_P1;PMS_P2;Temp;Humidity;BMP_temperature;BMP_pressure;BME280_temperature;BME280_humidity;BME280_pressure;Samples;Min_cycle;Max_cycle;Signal;HPM_P1;HPM_P2
2022/09/12 00:01:58;;;;;;;5.25;2.30;;;19.40;99.90;;;;;;5031025;28;20033;-70
2022/09/12 00:05:03;;;;;;;6.57;2.47;;;19.40;99.90;;;;;;5031082;28;20377;-70
2022/09/12 00:08:26;;;;;;;5.65;2.28;;;19.30;99.90;;;;;;5031330;28;20056;-70
2022/09/12 00:11:30;;;;;;;4.88;2.15;;;19.20;99.90;;;;;;5031198;28;20400;-69
2022/09/12 00:14:53;;;;;;;5.63;2.30;;;19.20;99.90;;;;;;5030499;28;20064;-69
2022/09/12 00:18:16;;;;;;;4.77;2.47;;;19.20;99.90;;;;;;5030928;28;20052;-69
2022/09/12 00:21:21;;;;;;;5.97;2.25;;;19.20;99.90;;;;;;5030772;28;20275;-70
2022/09/12 00:24:25;;;;;;;4.57;2.30;;;19.20;99.90;;;;;;5030702;28;20036;-69
2022/09/12 00:27:29;;;;;;;9.10;2.63;;;19.20;99.90;;;;;;5030898;28;20064;-69
2022/09/12 00:30:33;;;;;;;4.57;1.80;;;19.10;99.90;;;;;;5031139;28;20044;-70
2022/09/12 00:33:37;;;;;;;2.92;2.00;;;19.20;99.90;;;;;;5030210;28;20385;-69
2022/09/12 00:36:42;;;;;;;5.20;2.03;;;19.10;99.90;;;;;;5030610;28;20432;-69
2022/09/12 00:40:04;;;;;;;17.33;3.25;;;19.20;99.90;;;;;;5030787;28;20040;-69
2022/09/12 00:43:13;;;;;;;5.47;2.40;;;19.10;99.90;;;;;;5030409;28;20044;-69
2022/09/12 00:46:26;;;;;;;4.25;1.80;;;19.20;99.90;;;;;;5030578;28;20048;-70
2022/09/12 00:49:47;;;;;;;4.80;1.98;;;19.10;99.90;;;;;;5029748;28;20044;-69
2022/09/12 00:53:11;;;;;;;5.93;2.25;;;18.90;99.90;;;;;;5029902;28;20052;-69
2022/09/12 00:56:17;;;;;;;5.47;2.50;;;18.70;99.90;;;;;;5030632;28;20044;-69
2022/09/12 00:59:26;;;;;;;6.75;2.72;;;18.50;99.90;;;;;;5030512;28;20488;-69
2022/09/12 01:02:30;;;;;;;9.30;2.40;;;18.40;99.90;;;;;;5030555;28;20056;-70
2022/09/12 01:05:38;;;;;;;7.55;2.15;;;18.30;99.90;;;;;;5029919;28;20048;-69
2022/09/12 01:08:45;;;;;;;7.68;2.40;;;18.20;99.90;;;;;;5030191;28;20423;-69
2022/09/12 01:11:50;;;;;;;7.47;2.63;;;18.10;99.90;;;;;;5030339;28;20052;-69
2022/09/12 01:15:13;;;;;;;4.78;2.08;;;18.10;99.90;;;;;;5029248;28;20064;-69
2022/09/12 01:18:23;;;;;;;6.07;2.30;;;18.10;99.90;;;;;;5030035;28;20040;-69
2022/09/12 01:21:54;;;;;;;5.20;2.28;;;18.10;99.90;;;;;;5030288;28;20033;-69
2022/09/12 01:25:13;;;;;;;6.90;2.38;;;18.10;99.90;;;;;;5028998;28;20029;-69
2022/09/12 01:28:17;;;;;;;6.57;2.80;;;18.10;99.90;;;;;;5030056;28;20061;-69
2022/09/12 01:31:46;;;;;;;5.25;2.53;;;18.00;99.90;;;;;;5029867;28;20499;-69
2022/09/12 01:35:19;;;;;;;8.98;3.10;;;18.00;99.90;;;;;;5029078;28;20044;-69
2022/09/12 01:38:53;;;;;;;7.75;2.78;;;17.90;99.90;;;;;;5030405;28;20491;-70
2022/09/12 01:42:15;;;;;;;4.45;2.42;;;17.80;99.90;;;;;;5030179;28;20056;-69
2022/09/12 01:45:34;;;;;;;6.38;2.58;;;17.80;99.90;;;;;;5029022;28;20805;-69
2022/09/12 01:48:50;;;;;;;8.90;2.63;;;17.80;99.90;;;;;;5029808;28;20040;-69
2022/09/12 01:52:17;;;;;;;5.22;2.55;;;17.80;99.90;;;;;;5029752;28;20052;-69
2022/09/12 01:55:29;;;;;;;5.03;2.45;;;17.90;99.90;;;;;;5029239;28;20040;-69
2022/09/12 01:59:08;;;;;;;11.07;2.95;;;17.90;99.90;;;;;;5029448;28;20048;-69
2022/09/12 02:02:23;;;;;;;5.78;2.50;;;18.00;99.90;;;;;;5029969;28;20044;-69
2022/09/12 02:05:31;;;;;;;3.83;2.50;;;18.10;99.90;;;;;;5033166;28;20087;-69
2022/09/12 02:08:49;;;;;;;5.43;2.53;;;18.10;99.90;;;;;;5034072;28;20037;-69
2022/09/12 02:11:57;;;;;;;5.03;2.40;;;18.10;99.90;;;;;;5033646;28;20068;-69
2022/09/12 02:15:06;;;;;;;5.20;2.70;;;18.10;99.90;;;;;;5032721;28;20065;-69
2022/09/12 02:18:14;;;;;;;6.15;2.45;;;18.10;99.90;;;;;;5033620;28;20392;-69
2022/09/12 02:21:20;;;;;;;7.72;3.00;;;18.00;99.90;;;;;;5033650;28;20053;-69
2022/09/12 02:24:41;;;;;;;5.97;2.78;;;17.90;99.90;;;;;;5033174;28;20048;-69
2022/09/12 02:28:05;;;;;;;7.45;2.97;;;17.80;99.90;;;;;;5033267;28;20049;-69
2022/09/12 02:31:13;;;;;;;8.52;2.92;;;17.70;99.90;;;;;;5033061;28;20527;-69
2022/09/12 02:34:41;;;;;;;11.45;2.97;;;17.70;99.90;;;;;;5032492;28;20495;-69
2022/09/12 02:38:18;;;;;;;7.13;3.15;;;17.60;99.90;;;;;;5032954;28;20392;-69
2022/09/12 02:41:23;;;;;;;7.20;3.42;;;17.50;99.90;;;;;;5033204;28;20056;-69
2022/09/12 02:44:29;;;;;;;10.10;3.28;;;17.50;99.90;;;;;;5031963;28;20040;-69
2022/09/12 02:47:37;;;;;;;9.77;3.00;;;17.50;99.90;;;;;;5033013;28;20068;-69
2022/09/12 02:50:42;;;;;;;4.95;2.72;;;17.40;99.90;;;;;;5033096;28;20512;-69
2022/09/12 02:53:46;;;;;;;11.95;3.45;;;17.40;99.90;;;;;;5032344;28;20048;-69
2022/09/12 02:56:50;;;;;;;7.60;3.53;;;17.30;99.90;;;;;;5032501;28;20504;-69
2022/09/12 02:59:58;;;;;;;6.35;3.65;;;17.30;99.90;;;;;;5032489;28;20041;-69
2022/09/12 03:03:21;;;;;;;9.45;3.88;;;17.30;99.90;;;;;;5032814;28;20060;-69
2022/09/12 03:06:49;;;;;;;9.63;3.03;;;17.20;99.90;;;;;;5032603;28;20056;-69
2022/09/12 03:10:20;;;;;;;8.82;3.53;;;17.20;99.90;;;;;;5032683;28;20597;-69
2022/09/12 03:13:47;;;;;;;6.40;3.80;;;17.20;99.90;;;;;;5031992;28;20048;-69
2022/09/12 03:17:01;;;;;;;5.18;3.20;;;17.20;99.90;;;;;;5032067;28;20053;-69
2022/09/12 03:20:14;;;;;;;5.85;3.00;;;17.20;99.90;;;;;;5032270;28;20045;-69
2022/09/12 03:23:44;;;;;;;4.60;2.60;;;17.20;99.90;;;;;;5031666;28;20045;-69
2022/09/12 03:26:51;;;;;;;6.97;2.75;;;17.20;99.90;;;;;;5031961;28;20043;-69
2022/09/12 03:29:56;;;;;;;9.20;4.40;;;17.20;99.90;;;;;;5032406;28;20052;-69
2022/09/12 03:33:00;;;;;;;10.80;4.80;;;17.10;99.90;;;;;;5032210;28;20045;-69
2022/09/12 03:36:04;;;;;;;10.85;5.15;;;17.00;99.90;;;;;;5031301;28;20396;-69
2022/09/12 03:39:09;;;;;;;14.48;5.10;;;16.90;99.90;;;;;;5032282;28;20491;-69
2022/09/12 03:42:12;;;;;;;12.65;5.15;;;16.90;99.90;;;;;;5031636;28;20056;-69
2022/09/12 03:45:16;;;;;;;9.40;5.07;;;16.80;99.90;;;;;;5031321;28;20040;-69
2022/09/12 03:48:21;;;;;;;10.10;5.28;;;16.80;99.90;;;;;;5031849;28;20052;-69
2022/09/12 03:51:24;;;;;;;6.68;4.60;;;16.70;99.90;;;;;;5031443;28;20396;-69
2022/09/12 03:54:28;;;;;;;11.50;4.95;;;16.70;99.90;;;;;;5031276;28;20404;-69
2022/09/12 03:57:32;;;;;;;8.38;4.63;;;16.60;99.90;;;;;;5031347;28;20064;-69
2022/09/12 04:00:38;;;;;;;11.45;4.85;;;16.60;99.90;;;;;;5031586;28;20056;-69
2022/09/12 04:03:44;;;;;;;10.45;4.45;;;16.60;99.90;;;;;;5030978;28;20040;-69
2022/09/12 04:06:48;;;;;;;7.30;4.53;;;16.50;99.90;;;;;;5031013;28;20409;-69
2022/09/12 04:09:52;;;;;;;11.57;4.32;;;16.50;99.90;;;;;;5031570;28;20052;-70
2022/09/12 04:13:15;;;;;;;14.70;5.88;;;16.40;99.90;;;;;;5031187;28;20487;-69
2022/09/12 04:16:37;;;;;;;15.02;7.13;;;16.40;99.90;;;;;;5030663;28;20044;-69
2022/09/12 04:20:00;;;;;;;14.25;7.72;;;16.40;99.90;;;;;;5031261;28;20053;-69
2022/09/12 04:23:04;;;;;;;14.55;7.50;;;16.40;99.90;;;;;;5030790;28;20534;-69
2022/09/12 04:26:09;;;;;;;18.58;8.00;;;16.30;99.90;;;;;;5031311;28;20050;-70
2022/09/12 04:29:32;;;;;;;13.27;7.90;;;16.30;99.90;;;;;;5031073;28;20063;-69
2022/09/12 04:32:55;;;;;;;16.20;6.80;;;16.20;99.90;;;;;;5031608;28;20053;-69
2022/09/12 04:36:13;;;;;;;12.50;6.50;;;16.20;99.90;;;;;;5032094;28;20048;-70
2022/09/12 04:39:16;;;;;;;10.80;5.93;;;16.10;99.90;;;;;;5032051;28;20048;-69
2022/09/12 04:42:20;;;;;;;12.70;6.30;;;16.10;99.90;;;;;;5031552;28;20040;-69
2022/09/12 04:45:43;;;;;;;13.65;5.97;;;16.00;99.90;;;;;;5031040;28;20452;-69
2022/09/12 04:48:48;;;;;;;9.73;5.50;;;16.00;99.90;;;;;;5031586;28;20045;-69
2022/09/12 04:51:53;;;;;;;9.75;5.35;;;16.00;99.90;;;;;;5031467;28;20510;-69
2022/09/12 04:54:58;;;;;;;10.27;6.10;;;16.00;99.90;;;;;;5030859;28;20064;-69
2022/09/12 04:58:21;;;;;;;11.50;5.72;;;16.00;99.90;;;;;;5031050;28;20049;-69
2022/09/12 05:01:26;;;;;;;10.45;4.97;;;16.00;99.90;;;;;;5031188;28;20041;-69
2022/09/12 05:04:31;;;;;;;10.52;5.65;;;16.10;99.90;;;;;;5030848;28;20044;-69
2022/09/12 05:07:35;;;;;;;7.97;5.60;;;16.20;99.90;;;;;;5031060;28;20048;-70
2022/09/12 05:10:40;;;;;;;12.57;6.25;;;16.30;99.90;;;;;;5031118;28;20048;-69
2022/09/12 05:13:44;;;;;;;10.85;5.30;;;16.30;99.90;;;;;;5030196;28;20392;-69
2022/09/12 05:16:48;;;;;;;11.23;5.70;;;16.40;99.90;;;;;;5030037;28;20072;-68
2022/09/12 05:19:52;;;;;;;11.75;5.40;;;16.40;99.90;;;;;;5031653;28;20060;-69
2022/09/12 05:22:56;;;;;;;12.63;5.97;;;16.40;99.90;;;;;;5031235;28;20056;-69
2022/09/12 05:26:02;;;;;;;21.23;7.07;;;16.30;99.90;;;;;;5030766;28;20373;-69
2022/09/12 05:29:06;;;;;;;11.77;6.78;;;16.30;99.90;;;;;;5030941;28;20040;-69
2022/09/12 05:32:11;;;;;;;12.93;6.03;;;16.40;99.90;;;;;;5030552;28;20515;-69
2022/09/12 05:35:34;;;;;;;14.90;5.88;;;16.40;99.90;;;;;;5030539;28;20060;-69
2022/09/12 05:38:38;;;;;;;19.25;5.90;;;16.40;99.90;;;;;;5035990;28;20044;-68
2022/09/12 05:42:02;;;;;;;15.85;4.93;;;17.70;99.90;;;;;;5037590;28;20487;-69
2022/09/12 05:45:07;;;;;;;15.98;5.70;;;21.50;99.90;;;;;;5037414;28;20044;-69
2022/09/12 05:48:11;;;;;;;10.65;4.85;;;24.40;99.90;;;;;;5029046;28;20389;-70
2022/09/12 05:51:36;;;;;;;8.45;4.00;;;26.50;99.90;;;;;;5016332;28;20044;-70
2022/09/12 05:58:03;;;;;;;7.03;3.50;;;29.60;99.90;;;;;;5028669;28;20060;-70
2022/09/12 06:01:29;;;;;;;8.55;3.55;;;30.50;99.90;;;;;;5032789;28;20060;-69
2022/09/12 06:04:33;;;;;;;5.43;3.15;;;30.90;99.40;;;;;;5036261;28;20490;-69
2022/09/12 06:07:37;;;;;;;9.00;3.38;;;31.90;98.10;;;;;;5037423;28;20052;-70
2022/09/12 06:10:42;;;;;;;7.43;3.15;;;32.20;97.40;;;;;;5047915;28;20379;-69
2022/09/12 06:13:46;;;;;;;6.53;3.13;;;32.10;97.10;;;;;;5053896;28;20048;-69
2022/09/12 06:17:09;;;;;;;6.03;2.70;;;32.20;96.40;;;;;;5018726;28;20064;-69
2022/09/12 06:20:13;;;;;;;7.28;3.13;;;32.00;96.30;;;;;;5023869;28;20052;-69
2022/09/12 06:23:17;;;;;;;8.98;3.05;;;31.90;96.50;;;;;;5039555;28;20052;-68
2022/09/12 06:26:40;;;;;;;8.93;2.92;;;31.90;95.80;;;;;;5043603;28;20044;-69
2022/09/12 06:29:45;;;;;;;14.00;3.13;;;32.00;95.50;;;;;;5034361;28;20044;-69
2022/09/12 06:33:08;;;;;;;5.32;2.67;;;32.30;95.30;;;;;;5016482;28;20048;-69
2022/09/12 06:36:15;;;;;;;7.63;2.70;;;30.90;95.40;;;;;;5032585;28;20056;-70
2022/09/12 06:39:22;;;;;;;8.40;2.20;;;30.90;95.50;;;;;;5029250;28;20041;-68
2022/09/12 06:42:26;;;;;;;9.02;3.10;;;30.60;95.50;;;;;;5035251;28;20040;-69
2022/09/12 06:45:34;;;;;;;7.78;2.53;;;30.40;95.20;;;;;;5032388;28;20047;-69
2022/09/12 06:48:38;;;;;;;4.13;2.30;;;30.50;95.40;;;;;;5040250;28;20460;-69
2022/09/12 06:51:42;;;;;;;5.45;2.33;;;31.20;95.00;;;;;;5025196;28;20036;-69
2022/09/12 06:54:46;;;;;;;3.47;2.20;;;32.00;94.50;;;;;;5030396;28;20037;-69
2022/09/12 06:57:51;;;;;;;7.63;2.13;;;32.00;93.90;;;;;;5013278;28;20365;-69
2022/09/12 07:01:16;;;;;;;6.78;2.47;;;32.40;93.60;;;;;;5019654;28;20044;-70
2022/09/12 07:04:20;;;;;;;6.88;2.38;;;32.70;93.00;;;;;;5036296;28;20052;-69
2022/09/12 07:07:24;;;;;;;7.60;2.53;;;31.90;93.10;;;;;;5044562;28;20048;-69
2022/09/12 07:10:48;;;;;;;4.45;2.22;;;32.00;93.30;;;;;;5031555;28;20048;-69
2022/09/12 07:13:55;;;;;;;4.03;2.33;;;31.60;93.40;;;;;;5023564;28;20048;-70
2022/09/12 07:16:59;;;;;;;5.28;2.47;;;30.80;93.70;;;;;;5031674;28;20052;-70
2022/09/12 07:20:03;;;;;;;5.50;2.47;;;30.40;94.20;;;;;;5033407;28;20531;-69
2022/09/12 07:30:16;;;;;;;5.28;2.25;;;30.20;94.50;;;;;;5011882;28;20389;-69
2022/09/12 07:33:27;;;;;;;4.75;2.25;;;30.90;93.90;;;;;;5024472;28;20036;-69
2022/09/12 07:36:31;;;;;;;4.88;1.95;;;30.60;93.80;;;;;;5019067;28;20049;-70
2022/09/12 07:39:35;;;;;;;4.10;1.90;;;30.70;93.20;;;;;;5014067;28;20432;-69
2022/09/12 07:42:39;;;;;;;6.90;2.20;;;30.60;93.60;;;;;;5022173;28;20049;-70
2022/09/12 07:45:43;;;;;;;11.93;2.67;;;30.50;94.30;;;;;;5017639;28;20045;-70
2022/09/12 07:48:55;;;;;;;5.28;2.00;;;31.70;93.30;;;;;;5034006;28;20052;-70
2022/09/12 07:51:59;;;;;;;3.78;1.73;;;31.70;92.50;;;;;;5043084;28;20060;-70
2022/09/12 07:55:04;;;;;;;4.30;1.90;;;32.60;92.60;;;;;;5028900;28;20039;-70
2022/09/12 07:58:08;;;;;;;3.90;2.00;;;30.90;92.60;;;;;;5026202;28;20041;-70
2022/09/12 08:01:17;;;;;;;4.47;1.80;;;31.60;92.80;;;;;;5022428;28;20045;-69
2022/09/12 08:04:21;;;;;;;4.88;2.08;;;32.30;91.60;;;;;;5024476;28;20048;-70
2022/09/12 08:07:25;;;;;;;3.85;1.73;;;34.40;90.50;;;;;;5011782;28;20053;-70
2022/09/12 08:10:29;;;;;;;7.35;2.00;;;35.80;88.30;;;;;;5015887;28;20057;-69
2022/09/12 08:13:52;;;;;;;5.93;1.98;;;35.90;86.50;;;;;;5012420;28;20746;-69
2022/09/12 08:17:15;;;;;;;3.53;1.30;;;36.70;85.00;;;;;;5011769;28;20052;-70
2022/09/12 08:20:19;;;;;;;5.35;1.85;;;37.20;83.90;;;;;;5017246;28;20061;-70
2022/09/12 08:23:23;;;;;;;7.85;1.60;;;37.30;83.70;;;;;;5026962;28;20039;-70
2022/09/12 08:26:28;;;;;;;8.32;1.70;;;36.60;82.70;;;;;;5033610;28;20052;-70
2022/09/12 08:29:52;;;;;;;3.80;1.60;;;36.80;83.60;;;;;;5037001;28;20044;-70
2022/09/12 08:32:57;;;;;;;4.82;1.70;;;34.80;84.40;;;;;;5009248;28;20492;-70
2022/09/12 08:36:23;;;;;;;6.60;1.70;;;34.80;86.90;;;;;;5022742;28;20041;-70
2022/09/12 08:39:27;;;;;;;4.53;1.40;;;36.60;83.80;;;;;;5028296;28;20073;-70
2022/09/12 08:42:53;;;;;;;4.35;1.60;;;38.40;80.80;;;;;;5034821;28;20503;-70
2022/09/12 08:46:06;;;;;;;3.22;1.50;;;36.20;78.90;;;;;;5024762;28;20057;-70
2022/09/12 08:49:32;;;;;;;3.53;0.90;;;38.00;80.10;;;;;;5019522;28;20548;-69
2022/09/12 08:53:03;;;;;;;7.72;1.50;;;38.60;77.90;;;;;;5020122;28;20037;-70
2022/09/12 08:56:10;;;;;;;4.32;1.50;;;39.30;76.80;;;;;;5020747;28;20045;-70
2022/09/12 08:59:15;;;;;;;6.13;1.30;;;39.90;75.50;;;;;;5029243;28;20053;-70
2022/09/12 09:06:45;;;;;;;1.65;0.77;;;39.80;73.30;;;;;;5025836;28;20056;-70
2022/09/12 09:10:27;;;;;;;3.58;1.00;;;39.50;70.90;;;;;;5021429;28;20033;-70
2022/09/12 09:17:30;;;;;;;2.60;0.90;;;39.20;70.20;;;;;;5031910;28;20109;-70
2022/09/12 09:20:58;;;;;;;1.98;0.93;;;38.70;70.30;;;;;;5018733;28;20049;-69
2022/09/12 09:24:10;;;;;;;2.80;1.27;;;40.70;69.00;;;;;;5031534;28;21764;-69
2022/09/12 09:27:23;;;;;;;3.85;0.85;;;38.20;69.70;;;;;;5022193;28;20466;-70
2022/09/12 09:30:27;;;;;;;3.53;1.00;;;39.60;67.90;;;;;;5036455;28;20052;-70
2022/09/12 09:37:18;;;;;;;2.75;1.00;;;37.00;68.60;;;;;;5029863;28;20052;-70
2022/09/12 09:40:30;;;;;;;1.70;0.73;;;40.90;67.00;;;;;;5025685;28;20476;-70
2022/09/12 09:43:36;;;;;;;3.08;0.90;;;43.70;64.50;;;;;;5023365;28;20048;-70
2022/09/12 09:46:59;;;;;;;1.00;0.50;;;44.50;62.70;;;;;;5020830;28;20064;-70
2022/09/12 09:50:03;;;;;;;3.53;0.88;;;43.00;60.20;;;;;;5033078;28;20582;-70
2022/09/12 09:53:47;;;;;;;0.85;0.70;;;44.10;60.30;;;;;;5024064;28;20036;-70
2022/09/12 09:56:51;;;;;;;0.73;0.40;;;41.70;56.50;;;;;;5034489;28;20048;-70
2022/09/12 09:59:55;;;;;;;1.30;0.50;;;39.00;56.60;;;;;;5010609;28;20037;-70
2022/09/12 10:03:09;;;;;;;1.23;0.50;;;38.30;58.80;;;;;;5016818;28;20045;-71
2022/09/12 10:06:22;;;;;;;1.23;0.50;;;42.10;58.70;;;;;;5031272;28;20041;-70
2022/09/12 10:10:03;;;;;;;0.63;0.40;;;41.00;56.20;;;;;;5011295;28;20044;-70
2022/09/12 10:13:56;;;;;;;1.08;0.50;;;43.80;55.00;;;;;;5015363;28;20057;-70
2022/09/12 10:17:02;;;;;;;3.63;0.55;;;43.80;54.60;;;;;;5022109;28;20037;-70
2022/09/12 10:20:43;;;;;;;2.35;0.80;;;45.00;54.50;;;;;;5031867;28;20488;-70
2022/09/12 10:24:08;;;;;;;2.03;0.75;;;44.90;56.70;;;;;;5032559;28;20049;-70
2022/09/12 10:27:19;;;;;;;2.83;0.80;;;45.80;55.90;;;;;;5031816;28;20045;-69
2022/09/12 10:30:42;;;;;;;3.20;0.90;;;45.50;55.30;;;;;;5032119;28;20458;-70
2022/09/12 10:33:52;;;;;;;3.58;1.08;;;40.60;58.60;;;;;;5023835;28;20045;-70
2022/09/12 10:41:10;;;;;;;1.75;0.60;;;40.80;58.00;;;;;;5032971;28;20041;-70
2022/09/12 10:47:54;;;;;;;7.25;1.33;;;44.90;55.60;;;;;;5026192;28;20052;-70
2022/09/12 10:51:00;;;;;;;2.15;0.68;;;46.40;54.40;;;;;;5013620;28;20048;-70
2022/09/12 10:54:09;;;;;;;1.20;0.60;;;44.80;53.30;;;;;;5020083;28;20052;-70
2022/09/12 10:57:53;;;;;;;1.20;0.65;;;44.90;53.00;;;;;;5025574;28;20202;-70
2022/09/12 11:01:08;;;;;;;1.13;0.50;;;46.50;51.60;;;;;;5020919;28;20044;-71
2022/09/12 11:04:18;;;;;;;2.65;0.60;;;44.20;50.50;;;;;;5031769;28;20036;-70
2022/09/12 11:07:46;;;;;;;1.65;0.50;;;42.20;51.50;;;;;;5023686;28;20061;-70
2022/09/12 11:11:08;;;;;;;3.17;0.60;;;41.70;53.80;;;;;;5012776;28;20048;-71
2022/09/12 11:14:39;;;;;;;1.70;0.52;;;44.30;53.10;;;;;;5029590;28;20036;-71
2022/09/12 11:17:52;;;;;;;1.45;0.60;;;46.70;51.80;;;;;;5030279;28;20045;-70
2022/09/12 11:21:17;;;;;;;2.22;0.50;;;48.00;49.80;;;;;;5042789;28;20503;-71
2022/09/12 11:24:27;;;;;;;1.27;0.63;;;48.00;49.80;;;;;;5043384;28;20045;-71
2022/09/12 11:31:55;;;;;;;3.33;0.55;;;50.30;47.30;;;;;;5016298;28;19913;-70
2022/09/12 11:35:23;;;;;;;2.40;0.73;;;51.00;48.30;;;;;;5021943;28;20049;-70
2022/09/12 11:38:44;;;;;;;1.35;0.50;;;51.60;47.80;;;;;;5029137;28;20052;-70
2022/09/12 11:42:15;;;;;;;0.75;0.40;;;51.70;47.10;;;;;;5025740;28;20048;-70
2022/09/12 11:45:41;;;;;;;2.10;0.70;;;50.20;46.90;;;;;;5027834;28;20036;-70
2022/09/12 11:49:14;;;;;;;2.40;0.70;;;49.30;49.40;;;;;;5034786;28;20044;-70
2022/09/12 11:52:23;;;;;;;1.33;0.55;;;48.00;50.30;;;;;;5036331;28;20040;-68
2022/09/12 11:55:43;;;;;;;1.45;0.50;;;42.30;49.50;;;;;;5016637;28;20045;-69
2022/09/12 11:58:58;;;;;;;2.85;0.90;;;42.50;52.10;;;;;;5025847;28;20491;-69
2022/09/12 12:02:30;;;;;;;1.95;0.80;;;44.90;51.90;;;;;;5011838;28;20045;-69
2022/09/12 12:05:54;;;;;;;1.60;0.80;;;40.70;52.30;;;;;;5011981;28;20049;-68
2022/09/12 12:08:58;;;;;;;3.70;0.80;;;41.00;54.30;;;;;;5015740;28;20045;-68
2022/09/12 12:12:07;;;;;;;1.15;0.70;;;41.60;53.70;;;;;;5024065;28;20044;-69
2022/09/12 12:15:33;;;;;;;2.33;0.73;;;43.20;53.40;;;;;;5030444;28;20040;-70
2022/09/12 12:18:39;;;;;;;3.75;0.63;;;44.00;52.70;;;;;;5010752;28;20041;-69
2022/09/12 12:21:47;;;;;;;3.50;0.57;;;45.40;53.10;;;;;;5026863;28;20048;-70
2022/09/12 12:25:11;;;;;;;2.53;0.60;;;45.80;51.70;;;;;;5025543;28;20037;-70
2022/09/12 12:28:41;;;;;;;2.60;0.70;;;44.90;51.60;;;;;;5013177;28;20068;-70
2022/09/12 12:31:59;;;;;;;2.13;0.60;;;45.90;51.40;;;;;;5025847;28;20056;-69
2022/09/12 12:35:37;;;;;;;2.10;1.08;;;46.60;51.10;;;;;;5014168;28;20048;-70
2022/09/12 12:42:35;;;;;;;3.53;0.70;;;47.20;49.70;;;;;;5016611;28;20049;-69
2022/09/12 12:45:39;;;;;;;2.13;0.60;;;46.20;49.90;;;;;;5014860;28;20057;-69
2022/09/12 12:48:56;;;;;;;1.92;0.60;;;46.10;50.50;;;;;;5017757;28;20040;-70
2022/09/12 12:52:01;;;;;;;2.95;1.10;;;44.40;49.60;;;;;;5020813;28;20044;-70
2022/09/12 12:55:26;;;;;;;4.07;0.73;;;45.80;50.40;;;;;;5023723;28;20052;-69
2022/09/12 12:58:53;;;;;;;11.13;0.70;;;45.00;50.50;;;;;;5027158;28;20040;-70
2022/09/12 13:01:58;;;;;;;1.20;0.63;;;44.20;51.20;;;;;;5022259;28;20029;-72
2022/09/12 13:05:14;;;;;;;1.92;0.70;;;42.40;50.90;;;;;;5018547;28;20041;-70
2022/09/12 13:08:19;;;;;;;4.75;0.90;;;44.20;51.90;;;;;;5017747;28;20052;-69
2022/09/12 13:11:31;;;;;;;2.63;0.63;;;44.50;51.90;;;;;;5012703;28;20056;-70
2022/09/12 13:14:49;;;;;;;2.30;0.68;;;44.60;51.80;;;;;;5017207;28;20045;-70
2022/09/12 13:18:00;;;;;;;2.33;1.08;;;45.40;51.00;;;;;;5023757;28;20040;-70
2022/09/12 13:21:16;;;;;;;3.63;0.95;;;46.20;50.60;;;;;;5014715;28;20031;-67
2022/09/12 13:28:10;;;;;;;2.20;1.02;;;42.50;53.70;;;;;;5016080;28;20687;-70
2022/09/12 13:31:23;;;;;;;2.50;0.82;;;44.00;53.70;;;;;;5024238;28;20057;-70
2022/09/12 13:35:04;;;;;;;4.45;0.73;;;44.80;52.60;;;;;;5029053;28;20049;-70
2022/09/12 13:38:50;;;;;;;3.40;0.80;;;45.20;51.90;;;;;;5026990;28;20041;-71
2022/09/12 13:42:06;;;;;;;7.25;0.85;;;45.60;51.80;;;;;;5027519;28;20060;-70
2022/09/12 13:45:37;;;;;;;3.78;1.00;;;44.40;51.50;;;;;;5025005;28;20037;-68
2022/09/12 13:48:41;;;;;;;2.42;1.10;;;42.10;53.10;;;;;;5030044;28;20037;-68
2022/09/12 13:51:51;;;;;;;3.53;1.02;;;41.90;53.50;;;;;;5030026;28;20065;-68
2022/09/12 13:54:57;;;;;;;;;;;41.40;54.00;;;;;;5024095;28;20048;-68
2022/09/12 13:58:13;;;;;;;3.53;0.82;;;40.60;54.70;;;;;;5026148;28;19913;-68
2022/09/12 14:01:17;;;;;;;2.75;0.90;;;38.30;57.00;;;;;;5033042;28;20040;-69
2022/09/12 14:08:07;;;;;;;2.00;0.88;;;39.70;56.90;;;;;;5031183;28;20037;-70
2022/09/12 14:11:23;;;;;;;2.22;0.90;;;40.00;56.30;;;;;;5020713;28;20041;-70
2022/09/12 14:18:02;;;;;;;5.45;1.00;;;39.80;56.10;;;;;;5027298;28;20049;-68
2022/09/12 14:21:30;;;;;;;3.83;1.00;;;39.40;56.20;;;;;;5023442;28;20052;-69
2022/09/12 14:24:34;;;;;;;4.43;1.02;;;38.90;55.60;;;;;;5022815;28;20041;-71
2022/09/12 14:28:19;;;;;;;4.43;0.90;;;38.60;56.50;;;;;;5025651;28;20412;-72
2022/09/12 14:31:33;;;;;;;2.28;0.68;;;38.20;58.50;;;;;;5029982;28;20044;-70
2022/09/12 14:35:11;;;;;;;3.78;0.98;;;37.30;56.90;;;;;;5021568;28;20045;-71
2022/09/12 14:38:15;;;;;;;2.22;0.82;;;36.70;58.00;;;;;;5021209;28;20044;-70
2022/09/12 14:41:40;;;;;;;2.75;0.82;;;36.00;57.10;;;;;;5014675;28;20052;-71
2022/09/12 14:45:12;;;;;;;2.30;1.10;;;35.90;59.20;;;;;;5021822;28;20070;-70
2022/09/12 14:48:19;;;;;;;1.42;0.80;;;35.40;58.10;;;;;;5019727;28;20057;-70
2022/09/12 14:51:35;;;;;;;2.88;0.95;;;33.90;59.30;;;;;;5017529;28;20057;-70
2022/09/12 14:54:41;;;;;;;2.40;1.00;;;34.10;60.00;;;;;;5016929;28;20052;-71
2022/09/12 14:57:46;;;;;;;4.97;1.10;;;32.50;61.00;;;;;;5024651;28;20056;-69
2022/09/12 15:01:01;;;;;;;5.88;1.30;;;32.90;62.20;;;;;;5018305;28;20033;-70
2022/09/12 15:04:05;;;;;;;4.80;1.10;;;33.30;62.40;;;;;;5020469;28;20048;-70
2022/09/12 15:07:43;;;;;;;3.58;1.63;;;33.40;62.20;;;;;;5020808;28;20052;-70
2022/09/12 15:11:06;;;;;;;6.95;0.95;;;33.50;61.90;;;;;;5022312;28;20069;-69
2022/09/12 15:14:14;;;;;;;6.88;1.15;;;32.50;61.10;;;;;;5022750;28;20045;-70
2022/09/12 15:17:20;;;;;;;3.17;1.20;;;32.70;62.00;;;;;;5024528;28;21145;-69
2022/09/12 15:20:25;;;;;;;4.10;0.90;;;32.70;62.70;;;;;;5021045;28;20424;-70
2022/09/12 15:26:52;;;;;;;6.70;1.00;;;32.70;62.70;;;;;;5024158;28;20036;-70
2022/09/12 15:30:15;;;;;;;3.67;0.90;;;32.80;62.70;;;;;;5021297;28;20032;-71
2022/09/12 15:33:22;;;;;;;2.67;1.10;;;32.50;62.20;;;;;;5017361;28;20041;-69
2022/09/12 15:36:28;;;;;;;4.57;1.10;;;32.10;62.40;;;;;;5024270;28;20518;-69
2022/09/12 15:39:50;;;;;;;5.47;0.93;;;31.80;61.70;;;;;;5022785;28;20044;-69
2022/09/12 15:46:17;;;;;;;2.28;0.80;;;31.80;63.90;;;;;;5024306;28;20045;-70
2022/09/12 15:53:02;;;;;;;2.83;0.80;;;31.60;64.90;;;;;;5012282;28;20049;-69
2022/09/12 15:56:25;;;;;;;2.88;0.80;;;31.40;64.50;;;;;;5012580;28;20044;-69
2022/09/12 15:59:48;;;;;;;3.25;0.90;;;31.30;65.70;;;;;;5011768;28;20053;-70
2022/09/12 16:02:54;;;;;;;4.15;1.40;;;31.20;66.50;;;;;;5012193;28;20045;-70
2022/09/12 16:06:02;;;;;;;5.80;1.23;;;31.10;66.60;;;;;;5024471;28;20036;-70
2022/09/12 16:09:06;;;;;;;5.15;1.38;;;30.90;66.70;;;;;;5028963;28;20040;-70
2022/09/12 16:12:10;;;;;;;5.10;1.35;;;30.80;66.90;;;;;;5031769;28;20044;-69
2022/09/12 16:15:23;;;;;;;2.92;0.70;;;30.70;67.10;;;;;;5031374;28;20412;-70
2022/09/12 16:18:27;;;;;;;7.50;1.10;;;30.70;67.30;;;;;;5031646;28;20045;-69
2022/09/12 16:21:31;;;;;;;2.78;1.25;;;30.50;67.40;;;;;;5031536;28;20396;-69
2022/09/12 16:25:13;;;;;;;3.65;1.10;;;30.30;67.40;;;;;;5031079;28;20041;-70
2022/09/12 16:28:16;;;;;;;6.65;1.27;;;30.00;66.50;;;;;;5032058;28;20052;-69
2022/09/12 16:31:21;;;;;;;2.25;0.70;;;29.90;67.70;;;;;;5031649;28;20056;-70
2022/09/12 16:34:26;;;;;;;4.53;1.10;;;29.80;67.40;;;;;;5031368;28;20053;-70
2022/09/12 16:37:49;;;;;;;3.67;1.25;;;29.70;67.40;;;;;;5030995;28;20052;-69
2022/09/12 16:41:02;;;;;;;5.50;0.77;;;29.60;67.90;;;;;;5031302;28;20049;-70
2022/09/12 16:44:06;;;;;;;2.08;1.00;;;29.40;68.10;;;;;;5031030;28;20400;-70
2022/09/12 16:47:31;;;;;;;2.20;0.98;;;29.30;68.10;;;;;;5029305;28;20052;-70
2022/09/12 16:50:35;;;;;;;1.85;1.00;;;29.20;68.40;;;;;;5023905;28;20045;-69
2022/09/12 16:53:39;;;;;;;5.85;1.10;;;29.00;68.70;;;;;;5038914;28;20048;-69
2022/09/12 16:57:04;;;;;;;5.28;1.02;;;28.90;68.80;;;;;;5030808;28;20052;-69
2022/09/12 17:00:26;;;;;;;2.72;1.17;;;28.70;68.70;;;;;;5030418;28;20048;-69
2022/09/12 17:03:31;;;;;;;2.95;1.10;;;28.40;68.80;;;;;;5030189;28;20044;-69
2022/09/12 17:06:35;;;;;;;7.95;1.42;;;28.20;68.80;;;;;;5030245;28;20052;-69
2022/09/12 17:09:39;;;;;;;5.18;1.20;;;28.00;68.90;;;;;;5030940;28;20495;-69
2022/09/12 17:12:43;;;;;;;5.28;1.35;;;27.90;69.60;;;;;;5030884;28;20496;-69
2022/09/12 17:15:47;;;;;;;1.90;0.75;;;27.70;70.00;;;;;;5029737;28;20404;-69
2022/09/12 17:18:52;;;;;;;5.32;1.10;;;27.50;70.40;;;;;;5030397;28;20044;-69
2022/09/12 17:21:57;;;;;;;4.35;1.25;;;27.30;70.60;;;;;;5030378;28;20049;-70
2022/09/12 17:25:01;;;;;;;5.03;1.50;;;27.20;71.40;;;;;;5030034;28;20044;-69
2022/09/12 17:28:06;;;;;;;23.20;1.38;;;27.10;71.20;;;;;;5030040;28;20052;-69
2022/09/12 17:31:13;;;;;;;6.97;1.40;;;26.90;71.00;;;;;;5029761;28;20199;-69
2022/09/12 17:34:17;;;;;;;4.57;1.20;;;26.70;71.10;;;;;;5029286;28;20048;-69
2022/09/12 17:37:21;;;;;;;4.85;1.45;;;26.60;71.20;;;;;;5029880;28;20048;-70
2022/09/12 17:40:45;;;;;;;3.33;1.05;;;26.50;71.50;;;;;;5030289;28;20056;-69
2022/09/12 17:44:13;;;;;;;6.50;1.55;;;26.30;71.60;;;;;;5029585;28;20503;-69